sensor_id;sensor_type;location;lat;lon;timestamp;P1;durP1;ratioP1;P2;durP2;ratioP2
19776;SDS011;10047;42.490;26.012;2022-09-03T00:01:57;34.08;;;30.50;;
19776;SDS011;10047;42.490;26.012;2022-09-03T00:04:30;26.55;;;23.65;;
19776;SDS011;10047;42.490;26.012;2022-09-03T00:07:06;28.38;;;25.67;;
19776;SDS011;10047;42.490;26.012;2022-09-03T00:09:40;31.50;;;28.27;;
19776;SDS011;10047;42.490;26.012;2022-09-03T00:12:15;28.10;;;25.38;;
19776;SDS011;10047;42.490;26.012;2022-09-03T00:14:54;34.03;;;30.52;;
19776;SDS011;10047;42.490;26.012;2022-09-03T00:20:45;35.28;;;31.83;;
19776;SDS011;10047;42.490;26.012;2022-09-03T00:23:19;38.50;;;34.35;;
19776;SDS011;10047;42.490;26.012;2022-09-03T00:26:03;38.22;;;34.33;;
19776;SDS011;10047;42.490;26.012;2022-09-03T00:28:34;37.03;;;32.38;;
19776;SDS011;10047;42.490;26.012;2022-09-03T00:31:13;39.15;;;34.95;;
19776;SDS011;10047;42.490;26.012;2022-09-03T00:33:46;37.60;;;33.85;;
19776;SDS011;10047;42.490;26.012;2022-09-03T00:36:20;39.72;;;35.90;;
19776;SDS011;10047;42.490;26.012;2022-09-03T00:38:52;40.22;;;35.92;;
19776;SDS011;10047;42.490;26.012;2022-09-03T00:41:29;39.10;;;35.17;;
19776;SDS011;10047;42.490;26.012;2022-09-03T00:44:50;43.80;;;39.50;;
19776;SDS011;10047;42.490;26.012;2022-09-03T00:50:06;41.30;;;37.00;;
19776;SDS011;10047;42.490;26.012;2022-09-03T01:00:59;42.60;;;38.20;;
19776;SDS011;10047;42.490;26.012;2022-09-03T01:03:40;37.15;;;33.33;;
19776;SDS011;10047;42.490;26.012;2022-09-03T01:09:16;35.90;;;32.35;;
19776;SDS011;10047;42.490;26.012;2022-09-03T01:14:30;38.90;;;35.10;;
19776;SDS011;10047;42.490;26.012;2022-09-03T01:17:15;35.87;;;32.57;;
19776;SDS011;10047;42.490;26.012;2022-09-03T01:31:28;23.52;;;21.17;;
19776;SDS011;10047;42.490;26.012;2022-09-03T01:42:22;15.75;;;14.10;;
19776;SDS011;10047;42.490;26.012;2022-09-03T01:44:53;13.77;;;12.32;;
19776;SDS011;10047;42.490;26.012;2022-09-03T01:53:09;13.35;;;10.82;;
19776;SDS011;10047;42.490;26.012;2022-09-03T01:56:21;14.82;;;11.30;;
19776;SDS011;10047;42.490;26.012;2022-09-03T01:59:02;12.75;;;11.13;;
19776;SDS011;10047;42.490;26.012;2022-09-03T02:01:36;12.50;;;10.90;;
19776;SDS011;10047;42.490;26.012;2022-09-03T02:04:17;13.35;;;10.68;;
19776;SDS011;10047;42.490;26.012;2022-09-03T02:06:48;11.60;;;10.40;;
19776;SDS011;10047;42.490;26.012;2022-09-03T02:09:15;13.65;;;11.00;;
19776;SDS011;10047;42.490;26.012;2022-09-03T02:11:41;13.00;;;11.45;;
19776;SDS011;10047;42.490;26.012;2022-09-03T02:14:11;11.85;;;10.65;;
19776;SDS011;10047;42.490;26.012;2022-09-03T02:16:37;12.70;;;11.10;;
19776;SDS011;10047;42.490;26.012;2022-09-03T02:19:20;11.90;;;10.77;;
19776;SDS011;10047;42.490;26.012;2022-09-03T02:21:52;12.60;;;11.05;;
19776;SDS011;10047;42.490;26.012;2022-09-03T02:26:45;11.65;;;10.55;;
19776;SDS011;10047;42.490;26.012;2022-09-03T02:29:11;12.77;;;9.95;;
19776;SDS011;10047;42.490;26.012;2022-09-03T02:31:38;11.15;;;10.13;;
19776;SDS011;10047;42.490;26.012;2022-09-03T02:34:03;10.45;;;9.27;;
19776;SDS011;10047;42.490;26.012;2022-09-03T02:36:33;12.10;;;10.10;;
19776;SDS011;10047;42.490;26.012;2022-09-03T02:39:01;10.65;;;8.90;;
19776;SDS011;10047;42.490;26.012;2022-09-03T02:41:28;8.93;;;8.00;;
19776;SDS011;10047;42.490;26.012;2022-09-03T02:44:07;9.45;;;7.18;;
19776;SDS011;10047;42.490;26.012;2022-09-03T02:46:39;10.70;;;6.57;;
19776;SDS011;10047;42.490;26.012;2022-09-03T02:49:08;8.35;;;7.13;;
19776;SDS011;10047;42.490;26.012;2022-09-03T02:51:35;7.13;;;5.65;;
19776;SDS011;10047;42.490;26.012;2022-09-03T02:54:02;6.30;;;5.70;;
19776;SDS011;10047;42.490;26.012;2022-09-03T02:56:28;6.80;;;5.38;;
19776;SDS011;10047;42.490;26.012;2022-09-03T02:58:54;6.55;;;5.18;;
19776;SDS011;10047;42.490;26.012;2022-09-03T03:01:20;5.82;;;5.25;;
19776;SDS011;10047;42.490;26.012;2022-09-03T03:03:47;5.97;;;5.38;;
19776;SDS011;10047;42.490;26.012;2022-09-03T03:06:12;5.78;;;5.18;;
19776;SDS011;10047;42.490;26.012;2022-09-03T03:08:38;5.53;;;4.35;;
19776;SDS011;10047;42.490;26.012;2022-09-03T03:11:04;5.43;;;4.07;;
19776;SDS011;10047;42.490;26.012;2022-09-03T03:13:31;5.88;;;4.40;;
19776;SDS011;10047;42.490;26.012;2022-09-03T03:15:57;5.43;;;4.70;;
19776;SDS011;10047;42.490;26.012;2022-09-03T03:18:25;4.30;;;3.90;;
19776;SDS011;10047;42.490;26.012;2022-09-03T03:20:51;5.07;;;3.80;;
19776;SDS011;10047;42.490;26.012;2022-09-03T03:23:16;6.78;;;3.78;;
19776;SDS011;10047;42.490;26.012;2022-09-03T03:25:42;5.13;;;3.55;;
19776;SDS011;10047;42.490;26.012;2022-09-03T03:28:08;6.03;;;4.22;;
19776;SDS011;10047;42.490;26.012;2022-09-03T03:30:35;4.22;;;3.63;;
19776;SDS011;10047;42.490;26.012;2022-09-03T03:33:07;5.70;;;3.80;;
19776;SDS011;10047;42.490;26.012;2022-09-03T03:35:34;6.45;;;4.00;;
19776;SDS011;10047;42.490;26.012;2022-09-03T03:37:59;5.28;;;3.45;;
19776;SDS011;10047;42.490;26.012;2022-09-03T03:40:25;3.63;;;3.20;;
19776;SDS011;10047;42.490;26.012;2022-09-03T03:42:50;4.72;;;3.40;;
19776;SDS011;10047;42.490;26.012;2022-09-03T03:45:16;4.50;;;3.58;;
19776;SDS011;10047;42.490;26.012;2022-09-03T03:47:41;4.78;;;3.35;;
19776;SDS011;10047;42.490;26.012;2022-09-03T03:50:08;3.25;;;2.95;;
19776;SDS011;10047;42.490;26.012;2022-09-03T03:52:33;4.15;;;3.10;;
19776;SDS011;10047;42.490;26.012;2022-09-03T03:54:59;4.97;;;3.22;;
19776;SDS011;10047;42.490;26.012;2022-09-03T03:57:24;4.97;;;3.10;;
19776;SDS011;10047;42.490;26.012;2022-09-03T03:59:50;3.85;;;3.00;;
19776;SDS011;10047;42.490;26.012;2022-09-03T04:02:16;3.22;;;2.40;;
19776;SDS011;10047;42.490;26.012;2022-09-03T04:04:42;3.35;;;2.58;;
19776;SDS011;10047;42.490;26.012;2022-09-03T04:07:07;5.53;;;2.42;;
19776;SDS011;10047;42.490;26.012;2022-09-03T04:09:33;6.95;;;2.83;;
19776;SDS011;10047;42.490;26.012;2022-09-03T04:11:59;3.20;;;2.10;;
19776;SDS011;10047;42.490;26.012;2022-09-03T04:14:25;3.70;;;2.17;;
19776;SDS011;10047;42.490;26.012;2022-09-03T04:16:53;2.28;;;1.95;;
19776;SDS011;10047;42.490;26.012;2022-09-03T04:19:18;3.10;;;2.25;;
19776;SDS011;10047;42.490;26.012;2022-09-03T04:21:45;3.58;;;1.80;;
19776;SDS011;10047;42.490;26.012;2022-09-03T04:24:11;2.58;;;1.67;;
19776;SDS011;10047;42.490;26.012;2022-09-03T04:26:36;4.05;;;1.90;;
19776;SDS011;10047;42.490;26.012;2022-09-03T04:29:05;2.05;;;1.45;;
19776;SDS011;10047;42.490;26.012;2022-09-03T04:31:32;2.38;;;1.67;;
19776;SDS011;10047;42.490;26.012;2022-09-03T04:33:59;3.03;;;1.42;;
19776;SDS011;10047;42.490;26.012;2022-09-03T04:36:25;4.45;;;1.65;;
19776;SDS011;10047;42.490;26.012;2022-09-03T04:38:53;3.50;;;1.70;;
19776;SDS011;10047;42.490;26.012;2022-09-03T04:41:29;2.95;;;1.50;;
19776;SDS011;10047;42.490;26.012;2022-09-03T04:43:56;4.43;;;1.20;;
19776;SDS011;10047;42.490;26.012;2022-09-03T04:46:23;2.17;;;1.30;;
19776;SDS011;10047;42.490;26.012;2022-09-03T04:48:51;3.30;;;1.25;;
19776;SDS011;10047;42.490;26.012;2022-09-03T04:51:22;2.05;;;1.40;;
19776;SDS011;10047;42.490;26.012;2022-09-03T04:53:55;1.42;;;1.30;;
19776;SDS011;10047;42.490;26.012;2022-09-03T04:58:59;2.42;;;1.23;;
19776;SDS011;10047;42.490;26.012;2022-09-03T05:01:28;2.60;;;1.27;;
19776;SDS011;10047;42.490;26.012;2022-09-03T05:03:55;3.28;;;1.40;;
19776;SDS011;10047;42.490;26.012;2022-09-03T05:06:22;2.53;;;1.42;;
19776;SDS011;10047;42.490;26.012;2022-09-03T05:08:49;6.57;;;1.27;;
19776;SDS011;10047;42.490;26.012;2022-09-03T05:11:15;1.40;;;0.95;;
19776;SDS011;10047;42.490;26.012;2022-09-03T05:13:41;2.90;;;1.20;;
19776;SDS011;10047;42.490;26.012;2022-09-03T05:16:08;1.38;;;0.70;;
19776;SDS011;10047;42.490;26.012;2022-09-03T05:18:35;3.33;;;0.57;;
19776;SDS011;10047;42.490;26.012;2022-09-03T05:21:05;1.58;;;0.73;;
19776;SDS011;10047;42.490;26.012;2022-09-03T05:23:39;1.10;;;0.70;;
19776;SDS011;10047;42.490;26.012;2022-09-03T05:26:07;5.97;;;1.40;;
19776;SDS011;10047;42.490;26.012;2022-09-03T05:28:38;6.85;;;0.90;;
19776;SDS011;10047;42.490;26.012;2022-09-03T05:31:07;1.50;;;0.80;;
19776;SDS011;10047;42.490;26.012;2022-09-03T05:33:35;2.22;;;1.10;;
19776;SDS011;10047;42.490;26.012;2022-09-03T05:36:05;2.83;;;0.68;;
19776;SDS011;10047;42.490;26.012;2022-09-03T05:38:32;3.08;;;1.90;;
19776;SDS011;10047;42.490;26.012;2022-09-03T05:40:58;3.38;;;1.00;;
19776;SDS011;10047;42.490;26.012;2022-09-03T05:43:28;2.05;;;0.88;;
19776;SDS011;10047;42.490;26.012;2022-09-03T05:45:58;2.05;;;1.27;;
19776;SDS011;10047;42.490;26.012;2022-09-03T05:48:28;5.97;;;1.52;;
19776;SDS011;10047;42.490;26.012;2022-09-03T05:51:13;1.25;;;1.02;;
19776;SDS011;10047;42.490;26.012;2022-09-03T05:53:41;2.53;;;1.10;;
19776;SDS011;10047;42.490;26.012;2022-09-03T05:56:09;2.45;;;1.20;;
19776;SDS011;10047;42.490;26.012;2022-09-03T05:58:39;1.55;;;0.82;;
19776;SDS011;10047;42.490;26.012;2022-09-03T06:01:22;0.98;;;0.70;;
19776;SDS011;10047;42.490;26.012;2022-09-03T06:03:52;1.10;;;0.60;;
19776;SDS011;10047;42.490;26.012;2022-09-03T06:06:22;1.00;;;0.70;;
19776;SDS011;10047;42.490;26.012;2022-09-03T06:08:50;2.08;;;0.40;;
19776;SDS011;10047;42.490;26.012;2022-09-03T06:11:16;2.20;;;0.52;;
19776;SDS011;10047;42.490;26.012;2022-09-03T06:13:41;1.63;;;0.50;;
19776;SDS011;10047;42.490;26.012;2022-09-03T06:16:07;1.23;;;0.40;;
19776;SDS011;10047;42.490;26.012;2022-09-03T06:18:33;3.85;;;0.30;;
19776;SDS011;10047;42.490;26.012;2022-09-03T06:20:59;1.40;;;0.40;;
19776;SDS011;10047;42.490;26.012;2022-09-03T06:23:27;0.68;;;0.35;;
19776;SDS011;10047;42.490;26.012;2022-09-03T06:30:51;1.98;;;0.50;;
19776;SDS011;10047;42.490;26.012;2022-09-03T06:33:17;1.90;;;0.25;;
19776;SDS011;10047;42.490;26.012;2022-09-03T06:35:42;4.32;;;0.40;;
19776;SDS011;10047;42.490;26.012;2022-09-03T06:38:08;3.40;;;0.32;;
19776;SDS011;10047;42.490;26.012;2022-09-03T06:40:36;1.38;;;0.20;;
19776;SDS011;10047;42.490;26.012;2022-09-03T06:43:02;1.13;;;0.38;;
19776;SDS011;10047;42.490;26.012;2022-09-03T06:45:28;1.88;;;0.77;;
19776;SDS011;10047;42.490;26.012;2022-09-03T06:47:54;1.35;;;0.60;;
19776;SDS011;10047;42.490;26.012;2022-09-03T06:50:20;2.10;;;0.40;;
19776;SDS011;10047;42.490;26.012;2022-09-03T06:52:52;2.08;;;0.40;;
19776;SDS011;10047;42.490;26.012;2022-09-03T06:55:19;2.50;;;0.50;;
19776;SDS011;10047;42.490;26.012;2022-09-03T06:57:46;1.10;;;0.30;;
19776;SDS011;10047;42.490;26.012;2022-09-03T07:00:12;0.82;;;0.50;;
19776;SDS011;10047;42.490;26.012;2022-09-03T07:05:12;0.60;;;0.20;;
19776;SDS011;10047;42.490;26.012;2022-09-03T07:07:38;1.70;;;0.20;;
19776;SDS011;10047;42.490;26.012;2022-09-03T07:10:04;0.60;;;0.40;;
19776;SDS011;10047;42.490;26.012;2022-09-03T07:12:30;1.85;;;0.30;;
19776;SDS011;10047;42.490;26.012;2022-09-03T07:15:00;0.60;;;0.40;;
19776;SDS011;10047;42.490;26.012;2022-09-03T07:17:26;1.70;;;0.30;;
19776;SDS011;10047;42.490;26.012;2022-09-03T07:19:52;2.85;;;0.60;;
19776;SDS011;10047;42.490;26.012;2022-09-03T07:22:17;0.38;;;0.32;;
19776;SDS011;10047;42.490;26.012;2022-09-03T07:24:42;0.95;;;0.20;;
19776;SDS011;10047;42.490;26.012;2022-09-03T07:27:10;5.10;;;0.40;;
19776;SDS011;10047;42.490;26.012;2022-09-03T07:29:36;2.10;;;0.32;;
19776;SDS011;10047;42.490;26.012;2022-09-03T07:32:02;1.05;;;0.40;;
19776;SDS011;10047;42.490;26.012;2022-09-03T07:34:28;0.85;;;0.40;;
19776;SDS011;10047;42.490;26.012;2022-09-03T07:36:53;2.08;;;0.38;;
19776;SDS011;10047;42.490;26.012;2022-09-03T07:39:18;2.53;;;0.50;;
19776;SDS011;10047;42.490;26.012;2022-09-03T07:41:44;1.42;;;0.50;;
19776;SDS011;10047;42.490;26.012;2022-09-03T07:44:14;1.23;;;0.40;;
19776;SDS011;10047;42.490;26.012;2022-09-03T07:46:43;2.50;;;0.50;;
19776;SDS011;10047;42.490;26.012;2022-09-03T07:49:10;0.93;;;0.40;;
19776;SDS011;10047;42.490;26.012;2022-09-03T07:51:36;2.70;;;0.57;;
19776;SDS011;10047;42.490;26.012;2022-09-03T07:54:07;0.98;;;0.40;;
19776;SDS011;10047;42.490;26.012;2022-09-03T07:56:35;1.13;;;0.60;;
19776;SDS011;10047;42.490;26.012;2022-09-03T07:59:02;3.30;;;0.40;;
19776;SDS011;10047;42.490;26.012;2022-09-03T08:01:28;0.75;;;0.35;;
19776;SDS011;10047;42.490;26.012;2022-09-03T08:03:58;1.80;;;0.50;;
19776;SDS011;10047;42.490;26.012;2022-09-03T08:06:25;1.58;;;0.60;;
19776;SDS011;10047;42.490;26.012;2022-09-03T08:08:55;2.05;;;0.70;;
19776;SDS011;10047;42.490;26.012;2022-09-03T08:11:23;2.40;;;0.57;;
19776;SDS011;10047;42.490;26.012;2022-09-03T08:13:54;0.75;;;0.50;;
19776;SDS011;10047;42.490;26.012;2022-09-03T08:16:26;1.27;;;0.50;;
19776;SDS011;10047;42.490;26.012;2022-09-03T08:18:52;0.98;;;0.60;;
19776;SDS011;10047;42.490;26.012;2022-09-03T08:21:18;1.58;;;0.68;;
19776;SDS011;10047;42.490;26.012;2022-09-03T08:23:48;1.35;;;0.50;;
19776;SDS011;10047;42.490;26.012;2022-09-03T08:26:15;3.42;;;0.60;;
19776;SDS011;10047;42.490;26.012;2022-09-03T08:28:42;1.02;;;0.60;;
19776;SDS011;10047;42.490;26.012;2022-09-03T08:33:39;2.15;;;0.73;;
19776;SDS011;10047;42.490;26.012;2022-09-03T08:36:08;1.80;;;1.10;;
19776;SDS011;10047;42.490;26.012;2022-09-03T08:38:39;2.35;;;1.10;;
19776;SDS011;10047;42.490;26.012;2022-09-03T08:41:14;2.67;;;1.73;;
19776;SDS011;10047;42.490;26.012;2022-09-03T08:46:20;1.88;;;0.90;;
19776;SDS011;10047;42.490;26.012;2022-09-03T08:48:51;0.95;;;0.80;;
19776;SDS011;10047;42.490;26.012;2022-09-03T08:51:17;3.00;;;0.98;;
19776;SDS011;10047;42.490;26.012;2022-09-03T08:53:48;2.90;;;1.00;;
19776;SDS011;10047;42.490;26.012;2022-09-03T08:56:29;2.08;;;1.40;;
19776;SDS011;10047;42.490;26.012;2022-09-03T08:58:56;2.22;;;1.23;;
19776;SDS011;10047;42.490;26.012;2022-09-03T09:07:31;2.67;;;1.38;;
19776;SDS011;10047;42.490;26.012;2022-09-03T09:15:26;2.53;;;1.70;;
19776;SDS011;10047;42.490;26.012;2022-09-03T09:18:22;2.45;;;2.10;;
19776;SDS011;10047;42.490;26.012;2022-09-03T09:20:53;2.53;;;1.83;;
19776;SDS011;10047;42.490;26.012;2022-09-03T09:23:39;2.03;;;1.83;;
19776;SDS011;10047;42.490;26.012;2022-09-03T09:26:11;2.63;;;2.17;;
19776;SDS011;10047;42.490;26.012;2022-09-03T09:28:39;1.95;;;1.85;;
19776;SDS011;10047;42.490;26.012;2022-09-03T09:31:09;2.00;;;1.80;;
19776;SDS011;10047;42.490;26.012;2022-09-03T09:33:39;4.00;;;2.08;;
19776;SDS011;10047;42.490;26.012;2022-09-03T09:36:08;2.67;;;1.85;;
19776;SDS011;10047;42.490;26.012;2022-09-03T09:38:38;3.55;;;2.30;;
19776;SDS011;10047;42.490;26.012;2022-09-03T09:41:16;3.38;;;2.58;;
19776;SDS011;10047;42.490;26.012;2022-09-03T09:43:44;2.53;;;2.28;;
19776;SDS011;10047;42.490;26.012;2022-09-03T09:46:24;2.40;;;1.83;;
19776;SDS011;10047;42.490;26.012;2022-09-03T09:48:56;2.20;;;1.98;;
19776;SDS011;10047;42.490;26.012;2022-09-03T09:51:26;2.40;;;2.20;;
19776;SDS011;10047;42.490;26.012;2022-09-03T09:54:03;4.53;;;2.20;;
19776;SDS011;10047;42.490;26.012;2022-09-03T09:56:38;2.33;;;2.10;;
19776;SDS011;10047;42.490;26.012;2022-09-03T09:59:08;3.72;;;1.77;;
19776;SDS011;10047;42.490;26.012;2022-09-03T10:01:36;2.30;;;2.10;;
19776;SDS011;10047;42.490;26.012;2022-09-03T10:04:07;2.65;;;1.92;;
19776;SDS011;10047;42.490;26.012;2022-09-03T10:06:35;2.30;;;2.10;;
19776;SDS011;10047;42.490;26.012;2022-09-03T10:09:29;2.50;;;2.15;;
19776;SDS011;10047;42.490;26.012;2022-09-03T10:15:00;3.38;;;1.92;;
19776;SDS011;10047;42.490;26.012;2022-09-03T10:23:15;3.92;;;2.20;;
19776;SDS011;10047;42.490;26.012;2022-09-03T10:25:50;2.13;;;1.90;;
19776;SDS011;10047;42.490;26.012;2022-09-03T10:28:39;2.65;;;1.80;;
19776;SDS011;10047;42.490;26.012;2022-09-03T10:34:00;2.80;;;2.00;;
19776;SDS011;10047;42.490;26.012;2022-09-03T10:40:04;5.38;;;2.00;;
19776;SDS011;10047;42.490;26.012;2022-09-03T10:51:17;2.42;;;1.88;;
19776;SDS011;10047;42.490;26.012;2022-09-03T10:59:39;3.92;;;2.45;;
19776;SDS011;10047;42.490;26.012;2022-09-03T11:04:58;3.53;;;2.20;;
19776;SDS011;10047;42.490;26.012;2022-09-03T11:07:38;2.92;;;2.22;;
19776;SDS011;10047;42.490;26.012;2022-09-03T11:10:13;2.50;;;2.30;;
19776;SDS011;10047;42.490;26.012;2022-09-03T11:12:42;2.75;;;2.45;;
19776;SDS011;10047;42.490;26.012;2022-09-03T11:15:21;2.05;;;1.85;;
19776;SDS011;10047;42.490;26.012;2022-09-03T11:18:06;3.78;;;1.90;;
19776;SDS011;10047;42.490;26.012;2022-09-03T11:20:40;2.38;;;2.03;;
19776;SDS011;10047;42.490;26.012;2022-09-03T11:23:07;2.75;;;2.30;;
19776;SDS011;10047;42.490;26.012;2022-09-03T11:25:40;2.83;;;2.05;;
19776;SDS011;10047;42.490;26.012;2022-09-03T11:33:39;3.38;;;2.80;;
19776;SDS011;10047;42.490;26.012;2022-09-03T11:36:09;3.15;;;2.85;;
19776;SDS011;10047;42.490;26.012;2022-09-03T11:38:35;3.10;;;2.80;;
19776;SDS011;10047;42.490;26.012;2022-09-03T11:41:10;4.13;;;2.60;;
19776;SDS011;10047;42.490;26.012;2022-09-03T11:43:41;4.38;;;2.50;;
19776;SDS011;10047;42.490;26.012;2022-09-03T11:48:43;3.95;;;2.55;;
19776;SDS011;10047;42.490;26.012;2022-09-03T11:51:20;3.45;;;2.60;;
19776;SDS011;10047;42.490;26.012;2022-09-03T11:54:06;4.97;;;2.35;;
19776;SDS011;10047;42.490;26.012;2022-09-03T11:56:50;3.70;;;2.60;;
19776;SDS011;10047;42.490;26.012;2022-09-03T11:59:17;3.85;;;2.67;;
19776;SDS011;10047;42.490;26.012;2022-09-03T12:04:34;2.85;;;2.63;;
19776;SDS011;10047;42.490;26.012;2022-09-03T12:14:04;3.50;;;2.67;;
19776;SDS011;10047;42.490;26.012;2022-09-03T12:22:19;5.07;;;2.40;;
19776;SDS011;10047;42.490;26.012;2022-09-03T12:24:46;2.58;;;2.38;;
19776;SDS011;10047;42.490;26.012;2022-09-03T12:27:17;4.20;;;2.83;;
19776;SDS011;10047;42.490;26.012;2022-09-03T12:30:12;2.33;;;2.13;;
19776;SDS011;10047;42.490;26.012;2022-09-03T12:32:43;2.80;;;2.60;;
19776;SDS011;10047;42.490;26.012;2022-09-03T12:35:29;3.85;;;2.53;;
19776;SDS011;10047;42.490;26.012;2022-09-03T12:37:55;2.95;;;2.50;;
19776;SDS011;10047;42.490;26.012;2022-09-03T12:40:22;2.67;;;2.42;;
19776;SDS011;10047;42.490;26.012;2022-09-03T12:42:50;2.40;;;2.17;;
19776;SDS011;10047;42.490;26.012;2022-09-03T12:45:25;2.92;;;2.00;;
19776;SDS011;10047;42.490;26.012;2022-09-03T12:47:53;2.60;;;2.00;;
19776;SDS011;10047;42.490;26.012;2022-09-03T12:50:22;2.30;;;2.10;;
19776;SDS011;10047;42.490;26.012;2022-09-03T12:52:59;2.97;;;1.90;;
19776;SDS011;10047;42.490;26.012;2022-09-03T12:55:42;3.05;;;2.00;;
19776;SDS011;10047;42.490;26.012;2022-09-03T13:03:53;3.25;;;2.38;;
19776;SDS011;10047;42.490;26.012;2022-09-03T13:06:23;4.00;;;2.63;;
19776;SDS011;10047;42.490;26.012;2022-09-03T13:08:56;3.28;;;2.20;;
19776;SDS011;10047;42.490;26.012;2022-09-03T13:11:24;2.60;;;2.40;;
19776;SDS011;10047;42.490;26.012;2022-09-03T13:13:52;2.70;;;2.30;;
19776;SDS011;10047;42.490;26.012;2022-09-03T13:21:54;2.78;;;2.50;;
19776;SDS011;10047;42.490;26.012;2022-09-03T13:27:45;3.20;;;2.90;;
19776;SDS011;10047;42.490;26.012;2022-09-03T13:30:35;4.13;;;2.90;;
19776;SDS011;10047;42.490;26.012;2022-09-03T13:43:59;3.63;;;3.13;;
19776;SDS011;10047;42.490;26.012;2022-09-03T13:46:40;3.55;;;3.25;;
19776;SDS011;10047;42.490;26.012;2022-09-03T13:51:54;3.65;;;3.35;;
19776;SDS011;10047;42.490;26.012;2022-09-03T14:00:09;3.90;;;3.45;;
19776;SDS011;10047;42.490;26.012;2022-09-03T14:08:08;4.00;;;3.60;;
19776;SDS011;10047;42.490;26.012;2022-09-03T14:13:47;4.05;;;3.75;;
19776;SDS011;10047;42.490;26.012;2022-09-03T14:19:55;4.70;;;4.30;;
19776;SDS011;10047;42.490;26.012;2022-09-03T14:25:16;4.80;;;4.40;;
19776;SDS011;10047;42.490;26.012;2022-09-03T14:27:48;4.07;;;3.67;;
19776;SDS011;10047;42.490;26.012;2022-09-03T14:32:52;4.30;;;4.00;;
19776;SDS011;10047;42.490;26.012;2022-09-03T14:35:34;4.30;;;3.90;;
19776;SDS011;10047;42.490;26.012;2022-09-03T14:40:46;4.80;;;3.40;;
19776;SDS011;10047;42.490;26.012;2022-09-03T14:49:20;5.35;;;4.05;;
19776;SDS011;10047;42.490;26.012;2022-09-03T15:00:20;3.38;;;3.08;;
19776;SDS011;10047;42.490;26.012;2022-09-03T15:11:29;3.60;;;3.30;;
19776;SDS011;10047;42.490;26.012;2022-09-03T15:30:44;4.53;;;4.13;;
19776;SDS011;10047;42.490;26.012;2022-09-03T15:33:34;6.20;;;4.47;;
19776;SDS011;10047;42.490;26.012;2022-09-03T15:36:26;6.30;;;4.78;;
19776;SDS011;10047;42.490;26.012;2022-09-03T15:39:09;5.57;;;4.93;;
19776;SDS011;10047;42.490;26.012;2022-09-03T15:44:07;6.47;;;4.80;;
19776;SDS011;10047;42.490;26.012;2022-09-03T15:49:15;5.50;;;4.80;;
19776;SDS011;10047;42.490;26.012;2022-09-03T15:51:53;7.60;;;4.90;;
19776;SDS011;10047;42.490;26.012;2022-09-03T15:54:37;5.57;;;4.90;;
19776;SDS011;10047;42.490;26.012;2022-09-03T15:57:17;5.80;;;5.30;;
19776;SDS011;10047;42.490;26.012;2022-09-03T15:59:52;5.55;;;5.05;;
19776;SDS011;10047;42.490;26.012;2022-09-03T16:13:33;5.18;;;4.68;;
19776;SDS011;10047;42.490;26.012;2022-09-03T16:16:09;6.50;;;4.70;;
19776;SDS011;10047;42.490;26.012;2022-09-03T16:27:18;6.30;;;4.90;;
19776;SDS011;10047;42.490;26.012;2022-09-03T16:29:57;5.10;;;4.28;;
19776;SDS011;10047;42.490;26.012;2022-09-03T16:38:09;4.18;;;3.85;;
19776;SDS011;10047;42.490;26.012;2022-09-03T16:54:46;4.78;;;3.40;;
19776;SDS011;10047;42.490;26.012;2022-09-03T16:59:52;4.40;;;2.92;;
19776;SDS011;10047;42.490;26.012;2022-09-03T17:05:20;2.93;;;2.60;;
19776;SDS011;10047;42.490;26.012;2022-09-03T17:36:38;3.53;;;3.10;;
19776;SDS011;10047;42.490;26.012;2022-09-03T17:42:11;3.38;;;3.08;;
19776;SDS011;10047;42.490;26.012;2022-09-03T17:45:05;2.90;;;2.63;;
19776;SDS011;10047;42.490;26.012;2022-09-03T17:50:22;3.33;;;2.85;;
19776;SDS011;10047;42.490;26.012;2022-09-03T17:55:31;3.22;;;2.92;;
19776;SDS011;10047;42.490;26.012;2022-09-03T18:09:10;4.47;;;2.88;;
19776;SDS011;10047;42.490;26.012;2022-09-03T18:14:43;3.42;;;3.13;;
19776;SDS011;10047;42.490;26.012;2022-09-03T18:20:11;3.25;;;2.95;;
19776;SDS011;10047;42.490;26.012;2022-09-03T18:25:47;3.97;;;3.22;;
19776;SDS011;10047;42.490;26.012;2022-09-03T18:31:24;5.35;;;3.38;;
19776;SDS011;10047;42.490;26.012;2022-09-03T18:34:08;5.43;;;3.78;;
19776;SDS011;10047;42.490;26.012;2022-09-03T18:36:52;3.85;;;3.55;;
19776;SDS011;10047;42.490;26.012;2022-09-03T18:39:40;4.88;;;3.60;;
19776;SDS011;10047;42.490;26.012;2022-09-03T18:42:50;3.80;;;3.38;;
19776;SDS011;10047;42.490;26.012;2022-09-03T18:45:43;3.95;;;3.63;;
19776;SDS011;10047;42.490;26.012;2022-09-03T19:00:30;3.95;;;3.55;;
19776;SDS011;10047;42.490;26.012;2022-09-03T19:03:22;4.15;;;3.60;;
19776;SDS011;10047;42.490;26.012;2022-09-03T19:06:30;5.03;;;4.00;;
19776;SDS011;10047;42.490;26.012;2022-09-03T19:09:44;4.28;;;3.67;;
19776;SDS011;10047;42.490;26.012;2022-09-03T19:22:03;3.90;;;3.60;;
19776;SDS011;10047;42.490;26.012;2022-09-03T19:25:01;4.30;;;3.90;;
19776;SDS011;10047;42.490;26.012;2022-09-03T19:33:56;4.68;;;3.67;;
19776;SDS011;10047;42.490;26.012;2022-09-03T19:36:47;3.80;;;3.50;;
19776;SDS011;10047;42.490;26.012;2022-09-03T19:42:44;5.20;;;4.03;;
19776;SDS011;10047;42.490;26.012;2022-09-03T19:45:58;4.53;;;3.60;;
19776;SDS011;10047;42.490;26.012;2022-09-03T19:49:25;6.43;;;4.07;;
19776;SDS011;10047;42.490;26.012;2022-09-03T19:55:18;4.10;;;3.70;;
19776;SDS011;10047;42.490;26.012;2022-09-03T19:58:06;4.00;;;3.63;;
19776;SDS011;10047;42.490;26.012;2022-09-03T20:00:51;3.88;;;3.33;;
19776;SDS011;10047;42.490;26.012;2022-09-03T20:03:35;4.43;;;3.30;;
19776;SDS011;10047;42.490;26.012;2022-09-03T20:06:19;4.32;;;3.78;;
19776;SDS011;10047;42.490;26.012;2022-09-03T20:09:07;4.45;;;3.40;;
19776;SDS011;10047;42.490;26.012;2022-09-03T20:11:56;4.50;;;3.47;;
19776;SDS011;10047;42.490;26.012;2022-09-03T20:14:24;4.47;;;3.60;;
19776;SDS011;10047;42.490;26.012;2022-09-03T20:17:03;4.07;;;3.67;;
19776;SDS011;10047;42.490;26.012;2022-09-03T20:27:47;4.25;;;3.30;;
19776;SDS011;10047;42.490;26.012;2022-09-03T20:41:16;3.72;;;3.42;;
19776;SDS011;10047;42.490;26.012;2022-09-03T20:52:44;4.00;;;3.63;;
19776;SDS011;10047;42.490;26.012;2022-09-03T21:00:51;3.92;;;3.58;;
19776;SDS011;10047;42.490;26.012;2022-09-03T21:25:00;4.00;;;3.60;;
19776;SDS011;10047;42.490;26.012;2022-09-03T21:27:37;3.60;;;3.30;;
19776;SDS011;10047;42.490;26.012;2022-09-03T21:30:08;3.53;;;3.22;;
19776;SDS011;10047;42.490;26.012;2022-09-03T21:32:54;3.90;;;3.25;;
19776;SDS011;10047;42.490;26.012;2022-09-03T21:35:32;3.83;;;3.00;;
19776;SDS011;10047;42.490;26.012;2022-09-03T21:38:07;3.55;;;3.25;;
19776;SDS011;10047;42.490;26.012;2022-09-03T21:40:40;3.70;;;3.40;;
19776;SDS011;10047;42.490;26.012;2022-09-03T21:43:13;3.92;;;3.53;;
19776;SDS011;10047;42.490;26.012;2022-09-03T21:48:32;3.33;;;3.03;;
19776;SDS011;10047;42.490;26.012;2022-09-03T21:51:06;4.20;;;2.95;;
19776;SDS011;10047;42.490;26.012;2022-09-03T21:56:24;3.15;;;2.85;;
19776;SDS011;10047;42.490;26.012;2022-09-03T22:04:36;3.85;;;3.40;;
19776;SDS011;10047;42.490;26.012;2022-09-03T22:07:08;3.58;;;3.28;;
19776;SDS011;10047;42.490;26.012;2022-09-03T22:15:24;3.90;;;3.47;;
19776;SDS011;10047;42.490;26.012;2022-09-03T22:18:05;4.00;;;3.60;;
19776;SDS011;10047;42.490;26.012;2022-09-03T22:20:45;4.15;;;3.75;;
19776;SDS011;10047;42.490;26.012;2022-09-03T22:23:17;4.40;;;4.00;;
19776;SDS011;10047;42.490;26.012;2022-09-03T22:28:38;4.13;;;3.72;;